Time;durP1;ratioP1;P1;durP2;ratioP2;P2;SDS_P1;SDS_P2;PMS_P1;PMS_P2;Temp;Humidity;BMP_temperature;BMP_pressure;BME280_temperature;BME280_humidity;BME280_pressure;Samples;Min_cycle;Max_cycle;Signal;HPM_P1;HPM_P2
2021/09/20 00:00:34;;;;;;;923.70;811.25;;;;;;;;;;5007431;28;20112;-78
2021/09/20 00:03:00;;;;;;;921.55;809.45;;;;;;;;;;5006036;28;20454;-79
2021/09/20 00:05:26;;;;;;;923.20;812.33;;;;;;;;;;5003941;28;20030;-78
2021/09/20 00:07:52;;;;;;;923.72;811.47;;;;;;;;;;5008500;28;20044;-77
2021/09/20 00:10:18;;;;;;;916.00;801.75;;;;;;;;;;5009316;28;20034;-78
2021/09/20 00:12:44;;;;;;;912.35;793.17;;;;;;;;;;5004170;28;20514;-79
2021/09/20 00:15:11;;;;;;;920.00;806.55;;;;;;;;;;5003891;28;20037;-78
2021/09/20 00:17:37;;;;;;;918.42;798.47;;;;;;;;;;5010334;28;20029;-78
2021/09/20 00:20:07;;;;;;;923.17;806.75;;;;;;;;;;5010411;28;20096;-78
2021/09/20 00:22:33;;;;;;;915.47;797.55;;;;;;;;;;5005832;28;20030;-77
2021/09/20 00:24:59;;;;;;;920.15;800.42;;;;;;;;;;5007569;28;20121;-77
2021/09/20 00:27:25;;;;;;;922.47;802.30;;;;;;;;;;5000546;28;20117;-79
2021/09/20 00:29:52;;;;;;;916.72;798.78;;;;;;;;;;5006853;28;20022;-79
2021/09/20 00:32:18;;;;;;;917.58;798.08;;;;;;;;;;5009040;28;20543;-79
2021/09/20 00:34:44;;;;;;;917.47;798.90;;;;;;;;;;5015764;28;20113;-78
2021/09/20 00:37:10;;;;;;;920.10;798.13;;;;;;;;;;5008416;28;20045;-79
2021/09/20 00:39:36;;;;;;;919.65;796.08;;;;;;;;;;5008906;28;20223;-78
2021/09/20 00:42:02;;;;;;;918.88;796.35;;;;;;;;;;5005939;28;20034;-78
2021/09/20 00:44:28;;;;;;;916.65;793.20;;;;;;;;;;5001187;28;20410;-78
2021/09/20 00:46:54;;;;;;;912.30;788.78;;;;;;;;;;4991079;28;20038;-78
2021/09/20 00:49:20;;;;;;;906.45;774.70;;;;;;;;;;4999517;28;20408;-77
2021/09/20 00:51:46;;;;;;;909.00;778.85;;;;;;;;;;5011447;28;20125;-77
2021/09/20 00:54:12;;;;;;;908.17;778.45;;;;;;;;;;5008296;28;20026;-77
2021/09/20 00:56:38;;;;;;;906.92;774.95;;;;;;;;;;5004356;28;20451;-76
2021/09/20 00:59:04;;;;;;;906.55;771.90;;;;;;;;;;5002292;28;20046;-78
2021/09/20 01:01:32;;;;;;;910.05;777.80;;;;;;;;;;4990206;28;20030;-79
2021/09/20 01:03:58;;;;;;;912.97;785.50;;;;;;;;;;5010200;28;20163;-77
2021/09/20 01:06:24;;;;;;;915.03;785.78;;;;;;;;;;5009522;28;20033;-78
2021/09/20 01:08:50;;;;;;;911.67;781.05;;;;;;;;;;5009337;28;20036;-78
2021/09/20 01:11:16;;;;;;;917.63;789.05;;;;;;;;;;5007405;28;20022;-79
2021/09/20 01:13:42;;;;;;;917.05;788.65;;;;;;;;;;5002091;28;20131;-78
2021/09/20 01:16:08;;;;;;;913.33;784.08;;;;;;;;;;5006497;28;20125;-78
2021/09/20 01:18:34;;;;;;;920.88;799.75;;;;;;;;;;5007604;28;20120;-79
2021/09/20 01:21:00;;;;;;;915.50;787.63;;;;;;;;;;5009603;28;20076;-80
2021/09/20 01:23:26;;;;;;;922.05;791.53;;;;;;;;;;5008565;28;20042;-79
2021/09/20 01:25:52;;;;;;;916.72;787.03;;;;;;;;;;5006687;28;20424;-79
2021/09/20 01:28:18;;;;;;;922.33;804.00;;;;;;;;;;5003323;28;20053;-79
2021/09/20 01:30:44;;;;;;;915.47;790.13;;;;;;;;;;5007649;28;20068;-79
2021/09/20 01:33:10;;;;;;;914.50;783.15;;;;;;;;;;5008386;28;20026;-79
2021/09/20 01:35:36;;;;;;;914.65;794.17;;;;;;;;;;5006965;28;20044;-80
2021/09/20 01:38:02;;;;;;;914.47;785.45;;;;;;;;;;5007179;28;20029;-79
2021/09/20 01:40:28;;;;;;;909.45;783.50;;;;;;;;;;5007869;28;20030;-80
2021/09/20 01:42:55;;;;;;;912.50;783.63;;;;;;;;;;5008413;28;20041;-79
2021/09/20 01:45:23;;;;;;;912.80;790.70;;;;;;;;;;5006694;28;20096;-79
2021/09/20 01:47:49;;;;;;;913.95;788.72;;;;;;;;;;5007363;28;20164;-79
2021/09/20 01:50:15;;;;;;;907.58;779.92;;;;;;;;;;5007456;28;20034;-79
2021/09/20 01:52:41;;;;;;;916.25;787.63;;;;;;;;;;5002188;28;20121;-78
2021/09/20 01:55:08;;;;;;;916.63;787.67;;;;;;;;;;5006626;28;20315;-79
2021/09/20 01:57:34;;;;;;;912.85;782.60;;;;;;;;;;5007782;28;20566;-80
2021/09/20 02:00:00;;;;;;;916.08;782.97;;;;;;;;;;5007264;28;20025;-80
2021/09/20 02:02:26;;;;;;;907.20;773.78;;;;;;;;;;5007094;28;20484;-79
2021/09/20 02:04:52;;;;;;;914.42;782.22;;;;;;;;;;4993238;28;20404;-79
2021/09/20 02:07:18;;;;;;;912.05;780.28;;;;;;;;;;5008937;28;20037;-80
2021/09/20 02:09:44;;;;;;;913.00;777.35;;;;;;;;;;5007951;28;20034;-79
2021/09/20 02:12:10;;;;;;;905.40;771.03;;;;;;;;;;5008080;28;20136;-79
2021/09/20 02:14:36;;;;;;;908.20;772.40;;;;;;;;;;4991711;28;20034;-79
2021/09/20 02:17:02;;;;;;;909.80;777.50;;;;;;;;;;5006746;28;20042;-79
2021/09/20 02:19:28;;;;;;;907.85;772.97;;;;;;;;;;5006616;28;20049;-79
2021/09/20 02:21:54;;;;;;;907.72;770.33;;;;;;;;;;5007167;28;20060;-79
2021/09/20 02:24:20;;;;;;;904.88;762.38;;;;;;;;;;4999170;28;20069;-79
2021/09/20 02:26:46;;;;;;;908.25;769.20;;;;;;;;;;5003053;28;20058;-80
2021/09/20 02:29:12;;;;;;;911.92;774.58;;;;;;;;;;5004648;28;20037;-78
2021/09/20 02:31:38;;;;;;;915.90;780.63;;;;;;;;;;5007010;28;20310;-80
2021/09/20 02:34:04;;;;;;;914.70;775.05;;;;;;;;;;4994069;28;20026;-79
2021/09/20 02:36:31;;;;;;;910.65;770.58;;;;;;;;;;5006856;28;20037;-79
2021/09/20 02:38:57;;;;;;;911.83;773.53;;;;;;;;;;5004998;28;20030;-79
2021/09/20 02:41:23;;;;;;;915.65;780.88;;;;;;;;;;5006785;28;20042;-79
2021/09/20 02:43:49;;;;;;;917.25;780.13;;;;;;;;;;5005946;28;20061;-79
2021/09/20 02:46:15;;;;;;;907.65;764.40;;;;;;;;;;5006543;28;20068;-79
2021/09/20 02:48:42;;;;;;;913.20;773.28;;;;;;;;;;5007322;28;20022;-79
2021/09/20 02:51:08;;;;;;;903.13;746.60;;;;;;;;;;5003537;28;20470;-79
2021/09/20 02:53:34;;;;;;;904.90;752.75;;;;;;;;;;4998950;28;20041;-79
2021/09/20 02:56:00;;;;;;;903.70;757.15;;;;;;;;;;4991933;28;20044;-79
2021/09/20 02:58:26;;;;;;;905.70;755.97;;;;;;;;;;5004626;28;20025;-79
2021/09/20 03:00:52;;;;;;;904.03;749.80;;;;;;;;;;5006433;28;20035;-79
2021/09/20 03:03:18;;;;;;;908.90;758.45;;;;;;;;;;5006397;28;20026;-79
2021/09/20 03:05:44;;;;;;;909.50;762.28;;;;;;;;;;5006622;28;20033;-79
2021/09/20 03:08:10;;;;;;;909.20;756.10;;;;;;;;;;5015099;28;20036;-78
2021/09/20 03:10:36;;;;;;;903.33;749.17;;;;;;;;;;5006344;28;20512;-80
2021/09/20 03:13:02;;;;;;;905.33;748.60;;;;;;;;;;5004825;28;20096;-79
2021/09/20 03:15:28;;;;;;;915.92;761.38;;;;;;;;;;5005275;28;20486;-79
2021/09/20 03:17:54;;;;;;;908.97;755.65;;;;;;;;;;5005925;28;21524;-79
2021/09/20 03:20:20;;;;;;;909.00;755.10;;;;;;;;;;5006078;28;20449;-79
2021/09/20 03:22:46;;;;;;;904.85;746.53;;;;;;;;;;5007527;28;20033;-78
2021/09/20 03:25:13;;;;;;;905.65;742.78;;;;;;;;;;5001759;28;20034;-78
2021/09/20 03:27:39;;;;;;;900.65;730.80;;;;;;;;;;4997199;28;20030;-79
2021/09/20 03:30:05;;;;;;;903.22;738.13;;;;;;;;;;4999669;28;20520;-78
2021/09/20 03:32:32;;;;;;;903.65;737.22;;;;;;;;;;5001578;28;20088;-79
2021/09/20 03:34:58;;;;;;;904.63;735.78;;;;;;;;;;5007890;28;20062;-77
2021/09/20 03:37:24;;;;;;;906.75;741.30;;;;;;;;;;5010555;28;20068;-78
2021/09/20 03:39:50;;;;;;;903.83;739.03;;;;;;;;;;5010686;28;20037;-79
2021/09/20 03:42:16;;;;;;;902.20;740.63;;;;;;;;;;5028141;28;20033;-79
2021/09/20 03:44:42;;;;;;;907.08;745.78;;;;;;;;;;5009772;28;20425;-79
2021/09/20 03:47:08;;;;;;;909.47;751.50;;;;;;;;;;5009717;28;20157;-78
2021/09/20 03:49:34;;;;;;;907.08;745.17;;;;;;;;;;5004829;28;20075;-77
2021/09/20 03:52:00;;;;;;;905.47;742.97;;;;;;;;;;4991221;28;20414;-77
2021/09/20 03:54:26;;;;;;;905.38;744.10;;;;;;;;;;5000053;28;20211;-78
2021/09/20 03:56:52;;;;;;;907.47;746.50;;;;;;;;;;5012248;28;20030;-78
2021/09/20 03:59:18;;;;;;;905.85;743.97;;;;;;;;;;4997283;28;20100;-78
2021/09/20 04:01:44;;;;;;;908.67;742.15;;;;;;;;;;5006257;28;20482;-77
2021/09/20 04:04:10;;;;;;;905.45;734.03;;;;;;;;;;5005459;28;20569;-78
2021/09/20 04:06:36;;;;;;;904.88;733.72;;;;;;;;;;5002307;28;20474;-78
2021/09/20 04:09:03;;;;;;;909.05;738.72;;;;;;;;;;5007766;28;20474;-78
2021/09/20 04:11:29;;;;;;;924.58;765.50;;;;;;;;;;5009293;28;20226;-77
2021/09/20 04:13:56;;;;;;;930.47;773.03;;;;;;;;;;5009230;28;20026;-77
2021/09/20 04:16:21;;;;;;;935.17;779.38;;;;;;;;;;5005737;28;20104;-78
2021/09/20 04:18:47;;;;;;;934.83;772.40;;;;;;;;;;4992420;28;20030;-78
2021/09/20 04:21:13;;;;;;;933.55;769.30;;;;;;;;;;5009067;28;20030;-78
2021/09/20 04:23:39;;;;;;;935.08;774.33;;;;;;;;;;5009543;28;20030;-78
2021/09/20 04:26:05;;;;;;;942.03;780.92;;;;;;;;;;5005849;28;20219;-78
2021/09/20 04:28:31;;;;;;;936.75;773.42;;;;;;;;;;4995195;28;20322;-78
2021/09/20 04:30:57;;;;;;;937.78;776.42;;;;;;;;;;5010427;28;20525;-79
2021/09/20 04:33:23;;;;;;;936.88;776.78;;;;;;;;;;5020728;28;20025;-78
2021/09/20 04:35:50;;;;;;;935.97;771.38;;;;;;;;;;5006258;28;20227;-78
2021/09/20 04:38:16;;;;;;;940.25;780.58;;;;;;;;;;5008044;28;20029;-78
2021/09/20 04:40:42;;;;;;;937.80;778.85;;;;;;;;;;5005464;28;20031;-78
2021/09/20 04:43:09;;;;;;;935.45;776.15;;;;;;;;;;4996379;28;20026;-78
2021/09/20 04:45:40;;;;;;;933.53;768.00;;;;;;;;;;5009128;28;20099;-78
2021/09/20 04:48:10;;;;;;;933.42;773.92;;;;;;;;;;5010649;28;20037;-77
2021/09/20 04:50:36;;;;;;;937.07;777.00;;;;;;;;;;5001692;28;20030;-78
2021/09/20 04:53:02;;;;;;;935.95;769.25;;;;;;;;;;4998859;28;20025;-78
2021/09/20 04:55:28;;;;;;;934.90;767.83;;;;;;;;;;5008538;28;20034;-78
2021/09/20 04:57:55;;;;;;;936.28;765.95;;;;;;;;;;5009422;28;20400;-78
2021/09/20 05:00:21;;;;;;;936.30;767.30;;;;;;;;;;5005820;28;20052;-78
2021/09/20 05:02:47;;;;;;;938.70;775.60;;;;;;;;;;4990639;28;20034;-78
2021/09/20 05:05:13;;;;;;;935.25;769.90;;;;;;;;;;5012870;28;20108;-78
2021/09/20 05:07:39;;;;;;;939.08;775.67;;;;;;;;;;5029911;28;20025;-78
2021/09/20 05:10:06;;;;;;;935.03;772.63;;;;;;;;;;5008368;28;20026;-78
2021/09/20 05:12:32;;;;;;;933.15;760.25;;;;;;;;;;5010197;28;20053;-77
2021/09/20 05:14:58;;;;;;;932.20;761.63;;;;;;;;;;5007428;28;20022;-77
2021/09/20 05:17:24;;;;;;;929.45;754.90;;;;;;;;;;5009688;28;20037;-78
2021/09/20 05:19:50;;;;;;;934.35;767.78;;;;;;;;;;5008155;28;20502;-78
2021/09/20 05:22:16;;;;;;;936.22;777.20;;;;;;;;;;5008008;28;20033;-78
2021/09/20 05:24:42;;;;;;;927.05;760.88;;;;;;;;;;5006703;28;20539;-77
2021/09/20 05:27:07;;;;;;;934.33;770.65;;;;;;;;;;5009016;28;20038;-77
2021/09/20 05:29:33;;;;;;;933.65;765.65;;;;;;;;;;5006063;28;20052;-78
2021/09/20 05:31:59;;;;;;;932.53;766.80;;;;;;;;;;5005745;28;20091;-78
2021/09/20 05:34:28;;;;;;;936.20;774.17;;;;;;;;;;5009257;28;20088;-78
2021/09/20 05:36:54;;;;;;;936.35;775.72;;;;;;;;;;5004854;28;20037;-78
2021/09/20 05:39:20;;;;;;;938.03;777.65;;;;;;;;;;5012726;28;20038;-78
2021/09/20 05:41:46;;;;;;;935.70;776.55;;;;;;;;;;4999091;28;20038;-78
2021/09/20 05:44:12;;;;;;;935.60;768.45;;;;;;;;;;5006419;28;20411;-78
2021/09/20 05:46:38;;;;;;;932.08;766.92;;;;;;;;;;5007054;28;20144;-77
2021/09/20 05:49:04;;;;;;;933.45;767.03;;;;;;;;;;5007665;28;20029;-78
2021/09/20 05:51:30;;;;;;;936.08;766.40;;;;;;;;;;5007861;28;20109;-78
2021/09/20 05:53:56;;;;;;;937.47;772.40;;;;;;;;;;5007626;28;20084;-78
2021/09/20 05:56:22;;;;;;;935.35;773.85;;;;;;;;;;5003223;28;20034;-78
2021/09/20 05:58:48;;;;;;;935.00;771.55;;;;;;;;;;5005852;28;20033;-77
2021/09/20 06:01:14;;;;;;;930.40;764.08;;;;;;;;;;4997790;28;20044;-78
2021/09/20 06:03:40;;;;;;;938.83;784.65;;;;;;;;;;5006334;28;20046;-78
2021/09/20 06:06:06;;;;;;;938.17;779.75;;;;;;;;;;5006314;28;20026;-78
2021/09/20 06:08:32;;;;;;;941.03;790.05;;;;;;;;;;5007269;28;20022;-78
2021/09/20 06:10:58;;;;;;;939.08;790.80;;;;;;;;;;5006362;28;20022;-78
2021/09/20 06:13:24;;;;;;;941.50;791.05;;;;;;;;;;5002487;28;20054;-78
2021/09/20 06:15:52;;;;;;;939.85;790.38;;;;;;;;;;5004694;28;20062;-78
2021/09/20 06:18:18;;;;;;;937.80;789.72;;;;;;;;;;5005957;28;20109;-78
2021/09/20 06:20:44;;;;;;;943.70;800.53;;;;;;;;;;5004814;28;20117;-78
2021/09/20 06:23:10;;;;;;;940.78;798.03;;;;;;;;;;5002574;28;20473;-78
2021/09/20 06:25:36;;;;;;;942.53;801.22;;;;;;;;;;4996969;28;20037;-77
2021/09/20 06:28:02;;;;;;;940.55;798.80;;;;;;;;;;4997325;28;20057;-77
2021/09/20 06:30:28;;;;;;;935.00;794.38;;;;;;;;;;5001111;28;20034;-78
2021/09/20 06:32:53;;;;;;;942.45;806.90;;;;;;;;;;5014484;28;20608;-77
2021/09/20 06:35:19;;;;;;;942.22;811.10;;;;;;;;;;4998689;28;20458;-78
2021/09/20 06:37:45;;;;;;;939.53;806.60;;;;;;;;;;4987333;28;20034;-78
2021/09/20 06:40:12;;;;;;;945.60;821.00;;;;;;;;;;4986973;28;20360;-77
2021/09/20 06:42:37;;;;;;;941.60;817.90;;;;;;;;;;4988178;28;20027;-77
2021/09/20 06:45:04;;;;;;;947.75;828.42;;;;;;;;;;4995660;28;20087;-77
2021/09/20 06:47:30;;;;;;;949.20;830.85;;;;;;;;;;5008290;28;20139;-78
2021/09/20 06:49:56;;;;;;;952.22;839.35;;;;;;;;;;5000597;28;20129;-78
2021/09/20 06:52:22;;;;;;;947.85;838.33;;;;;;;;;;5004220;28;20030;-78
2021/09/20 06:54:48;;;;;;;950.83;843.25;;;;;;;;;;5003905;28;20121;-79
2021/09/20 06:57:14;;;;;;;959.95;853.97;;;;;;;;;;5002126;28;20505;-78
2021/09/20 06:59:41;;;;;;;961.03;854.85;;;;;;;;;;5006546;28;20048;-76
2021/09/20 07:02:07;;;;;;;963.17;857.05;;;;;;;;;;4995484;28;20050;-78
2021/09/20 07:04:33;;;;;;;965.08;858.97;;;;;;;;;;5001932;28;20030;-78
2021/09/20 07:06:59;;;;;;;974.90;868.58;;;;;;;;;;5003771;28;20026;-78
2021/09/20 07:09:25;;;;;;;971.20;865.10;;;;;;;;;;5006643;28;20041;-78
2021/09/20 07:11:51;;;;;;;985.45;878.63;;;;;;;;;;5005090;28;20478;-78
2021/09/20 07:14:17;;;;;;;1011.00;902.95;;;;;;;;;;5001330;28;20609;-78
2021/09/20 07:16:43;;;;;;;999.85;892.65;;;;;;;;;;5007286;28;20100;-78
2021/09/20 07:19:09;;;;;;;1004.53;897.13;;;;;;;;;;5027255;28;20029;-78
2021/09/20 07:21:35;;;;;;;994.38;887.63;;;;;;;;;;5015420;28;20030;-77
2021/09/20 07:24:02;;;;;;;1001.30;894.42;;;;;;;;;;5021799;28;20029;-78
2021/09/20 07:26:29;;;;;;;1012.47;904.88;;;;;;;;;;5024258;28;20053;-78
2021/09/20 07:28:57;;;;;;;1028.97;920.67;;;;;;;;;;5005707;28;20025;-78
2021/09/20 07:31:24;;;;;;;1026.70;918.90;;;;;;;;;;4999554;28;20172;-78
2021/09/20 07:33:50;;;;;;;1034.10;925.95;;;;;;;;;;5008598;28;20097;-79
2021/09/20 07:36:17;;;;;;;1038.40;930.22;;;;;;;;;;5003379;28;20616;-78
2021/09/20 07:38:43;;;;;;;1037.88;930.03;;;;;;;;;;5014671;28;20457;-78
2021/09/20 07:41:10;;;;;;;1040.30;932.30;;;;;;;;;;5006767;28;20026;-77
2021/09/20 07:43:36;;;;;;;1049.18;940.63;;;;;;;;;;5004447;28;20662;-78
2021/09/20 07:46:02;;;;;;;1048.97;940.50;;;;;;;;;;5004160;28;20026;-77
2021/09/20 07:48:29;;;;;;;1051.50;943.00;;;;;;;;;;5005302;28;20084;-78
2021/09/20 07:50:55;;;;;;;1065.57;956.72;;;;;;;;;;5003869;28;20394;-78
2021/09/20 07:53:21;;;;;;;1058.53;949.92;;;;;;;;;;5011159;28;20033;-77
2021/09/20 07:55:47;;;;;;;1068.25;959.45;;;;;;;;;;5005063;28;20479;-77
2021/09/20 07:58:14;;;;;;;1066.82;958.25;;;;;;;;;;5000838;28;20072;-76
2021/09/20 08:00:41;;;;;;;1066.13;957.88;;;;;;;;;;5000684;28;20038;-77
2021/09/20 08:03:09;;;;;;;1072.82;963.85;;;;;;;;;;4996187;28;20578;-76
2021/09/20 08:05:35;;;;;;;1074.15;964.88;;;;;;;;;;4989684;28;20097;-78
2021/09/20 08:08:02;;;;;;;1073.18;963.88;;;;;;;;;;5002540;28;20045;-77
2021/09/20 08:10:28;;;;;;;1070.95;961.85;;;;;;;;;;5010224;28;20688;-79
2021/09/20 08:12:54;;;;;;;1072.10;963.13;;;;;;;;;;5002820;28;20341;-78
2021/09/20 08:15:21;;;;;;;1073.07;963.95;;;;;;;;;;5005203;28;20069;-78
2021/09/20 08:17:47;;;;;;;1074.07;965.35;;;;;;;;;;5010945;28;20572;-76
2021/09/20 08:20:13;;;;;;;1082.05;972.38;;;;;;;;;;5010070;28;20395;-77
2021/09/20 08:22:39;;;;;;;1074.80;965.70;;;;;;;;;;5011201;28;20030;-77
2021/09/20 08:25:06;;;;;;;1083.00;973.67;;;;;;;;;;5009174;28;20099;-77
2021/09/20 08:27:32;;;;;;;1085.53;976.05;;;;;;;;;;5023227;28;20693;-78
2021/09/20 08:29:58;;;;;;;1095.47;985.50;;;;;;;;;;5009771;28;20022;-77
2021/09/20 08:32:27;;;;;;;1095.68;985.80;;;;;;;;;;5019609;28;20026;-78
2021/09/20 08:34:53;;;;;;;1112.10;998.67;;;;;;;;;;5010927;28;20022;-78
2021/09/20 08:37:19;;;;;;;1113.65;999.13;;;;;;;;;;5012089;28;20067;-78
2021/09/20 08:39:47;;;;;;;1123.18;999.90;;;;;;;;;;5011714;28;20088;-77
2021/09/20 08:42:14;;;;;;;1122.72;999.90;;;;;;;;;;5010222;28;20056;-77
2021/09/20 08:44:40;;;;;;;1126.38;999.90;;;;;;;;;;5011125;28;20071;-78
2021/09/20 08:47:06;;;;;;;1122.55;999.90;;;;;;;;;;5013364;28;20404;-76
2021/09/20 08:49:34;;;;;;;1129.32;999.90;;;;;;;;;;5005143;28;20034;-78
2021/09/20 08:52:00;;;;;;;1126.55;999.90;;;;;;;;;;5005075;28;20026;-76
2021/09/20 08:54:28;;;;;;;1131.90;999.90;;;;;;;;;;5001341;28;20088;-77
2021/09/20 08:56:54;;;;;;;1117.28;999.83;;;;;;;;;;5008407;28;20038;-78
2021/09/20 08:59:21;;;;;;;1113.75;999.47;;;;;;;;;;5004001;28;20034;-78
2021/09/20 09:01:48;;;;;;;1121.95;999.90;;;;;;;;;;5003963;28;20410;-77
2021/09/20 09:04:27;;;;;;;1120.80;999.90;;;;;;;;;;5017014;28;20030;-78
2021/09/20 09:06:58;;;;;;;1120.10;999.90;;;;;;;;;;5008558;28;20040;-77
2021/09/20 09:09:25;;;;;;;1127.10;999.90;;;;;;;;;;5026140;28;20072;-77
2021/09/20 09:11:53;;;;;;;1127.88;999.90;;;;;;;;;;5007554;28;20037;-76
2021/09/20 09:14:20;;;;;;;1121.78;999.90;;;;;;;;;;5008789;28;20040;-79
2021/09/20 09:16:47;;;;;;;1129.70;999.90;;;;;;;;;;5009754;28;20030;-76
2021/09/20 09:19:15;;;;;;;1122.32;999.90;;;;;;;;;;5007124;28;20372;-76
2021/09/20 09:21:43;;;;;;;1124.50;999.90;;;;;;;;;;4999972;28;20367;-76
2021/09/20 09:24:14;;;;;;;1128.63;999.90;;;;;;;;;;5007967;28;20470;-79
2021/09/20 09:26:56;;;;;;;1133.13;999.90;;;;;;;;;;5008750;28;20034;-78
2021/09/20 09:29:23;;;;;;;1129.07;999.90;;;;;;;;;;5002874;28;20088;-77
2021/09/20 09:31:53;;;;;;;1145.45;999.90;;;;;;;;;;5004988;28;20109;-78
2021/09/20 09:34:46;;;;;;;1147.32;999.90;;;;;;;;;;5003325;28;20185;-77
2021/09/20 09:37:17;;;;;;;1144.55;999.90;;;;;;;;;;4999955;28;20641;-76
2021/09/20 09:39:46;;;;;;;1155.40;999.90;;;;;;;;;;4997418;28;20137;-78
2021/09/20 09:42:23;;;;;;;1150.65;999.90;;;;;;;;;;4995898;28;20026;-77
2021/09/20 09:44:50;;;;;;;1158.70;999.90;;;;;;;;;;5019231;28;20030;-77
2021/09/20 09:47:25;;;;;;;1164.18;999.90;;;;;;;;;;5015577;28;20129;-78
2021/09/20 09:50:10;;;;;;;1169.28;999.90;;;;;;;;;;5008119;28;20022;-77
2021/09/20 09:52:42;;;;;;;1169.85;999.90;;;;;;;;;;5018550;28;20030;-75
2021/09/20 09:55:09;;;;;;;1160.50;999.90;;;;;;;;;;5000956;28;20824;-77
2021/09/20 09:57:35;;;;;;;1168.35;999.90;;;;;;;;;;5004447;28;20037;-77
2021/09/20 10:00:05;;;;;;;1177.68;999.90;;;;;;;;;;4996852;28;20426;-76
2021/09/20 10:02:33;;;;;;;1160.40;999.90;;;;;;;;;;5002436;28;20033;-78
2021/09/20 10:05:04;;;;;;;1156.72;999.90;;;;;;;;;;4995554;28;20033;-76
2021/09/20 10:07:32;;;;;;;1158.07;999.90;;;;;;;;;;5000046;28;20062;-76
2021/09/20 10:09:59;;;;;;;1152.30;999.90;;;;;;;;;;5002699;28;20109;-76
2021/09/20 10:12:28;;;;;;;1147.05;999.90;;;;;;;;;;4999283;28;20290;-76
2021/09/20 10:14:56;;;;;;;1143.43;999.90;;;;;;;;;;5003085;28;20096;-77
2021/09/20 10:17:23;;;;;;;1135.57;999.90;;;;;;;;;;5003536;28;20026;-76
2021/09/20 10:19:50;;;;;;;1131.00;999.90;;;;;;;;;;4998166;28;20046;-77
2021/09/20 10:22:18;;;;;;;1127.07;999.90;;;;;;;;;;4997328;28;20441;-77
2021/09/20 10:24:45;;;;;;;1132.50;999.90;;;;;;;;;;5003049;28;20346;-79
2021/09/20 10:27:12;;;;;;;1134.20;999.90;;;;;;;;;;5001836;28;20393;-77
2021/09/20 10:29:40;;;;;;;1128.38;999.90;;;;;;;;;;4998178;28;20119;-78
2021/09/20 10:32:07;;;;;;;1140.82;999.90;;;;;;;;;;4997898;28;20025;-76
2021/09/20 10:34:34;;;;;;;1142.47;999.90;;;;;;;;;;5017695;28;20053;-77
2021/09/20 10:37:28;;;;;;;1146.22;999.90;;;;;;;;;;5001325;28;20065;-76
2021/09/20 10:39:56;;;;;;;1131.53;999.90;;;;;;;;;;5009774;28;20034;-77
2021/09/20 10:42:48;;;;;;;1136.43;999.90;;;;;;;;;;5005197;28;20151;-78
2021/09/20 10:45:33;;;;;;;1135.20;999.90;;;;;;;;;;5008377;28;20034;-78
2021/09/20 10:48:19;;;;;;;1134.82;999.90;;;;;;;;;;5001083;28;20442;-79
2021/09/20 10:50:50;;;;;;;1136.53;999.90;;;;;;;;;;5004967;28;20026;-77
2021/09/20 10:53:29;;;;;;;1139.15;999.90;;;;;;;;;;5002906;28;20538;-77
2021/09/20 10:56:07;;;;;;;1136.20;999.90;;;;;;;;;;5004291;28;20048;-79
2021/09/20 10:59:07;;;;;;;1130.38;999.90;;;;;;;;;;5007820;28;20534;-78
2021/09/20 11:01:34;;;;;;;1126.88;999.90;;;;;;;;;;5008628;28;20075;-78
2021/09/20 11:04:01;;;;;;;1140.35;999.90;;;;;;;;;;4999874;28;20366;-77
2021/09/20 11:06:32;;;;;;;1139.60;999.90;;;;;;;;;;5000152;28;20081;-78
2021/09/20 11:08:58;;;;;;;1135.32;999.90;;;;;;;;;;5004909;28;20109;-76
2021/09/20 11:11:45;;;;;;;1137.45;999.90;;;;;;;;;;5006993;28;20240;-77
2021/09/20 11:14:11;;;;;;;1138.95;999.90;;;;;;;;;;5003704;28;20045;-75
2021/09/20 11:16:49;;;;;;;1142.68;999.90;;;;;;;;;;5005303;28;20038;-77
2021/09/20 11:19:24;;;;;;;1152.97;999.90;;;;;;;;;;5006602;28;20028;-77
2021/09/20 11:22:06;;;;;;;1144.30;999.90;;;;;;;;;;5007243;28;20437;-75
2021/09/20 11:24:33;;;;;;;1153.78;999.90;;;;;;;;;;5003316;28;20026;-78
2021/09/20 11:26:59;;;;;;;1153.35;999.90;;;;;;;;;;5006726;28;20018;-76
2021/09/20 11:29:28;;;;;;;1150.32;999.90;;;;;;;;;;5004787;28;20026;-77
2021/09/20 11:31:56;;;;;;;1143.78;999.90;;;;;;;;;;5002282;28;20482;-77
2021/09/20 11:34:48;;;;;;;1151.65;999.90;;;;;;;;;;5007659;28;20033;-77
2021/09/20 11:37:19;;;;;;;1137.13;999.90;;;;;;;;;;4998897;28;20046;-77
2021/09/20 11:39:54;;;;;;;1135.43;999.90;;;;;;;;;;5001670;28;20022;-79
2021/09/20 11:42:22;;;;;;;1128.07;999.90;;;;;;;;;;5003214;28;20033;-78
2021/09/20 11:44:50;;;;;;;1128.60;999.90;;;;;;;;;;5009844;28;20631;-77
2021/09/20 11:47:17;;;;;;;1129.80;999.90;;;;;;;;;;5009080;28;20026;-78
2021/09/20 11:49:45;;;;;;;1134.03;999.90;;;;;;;;;;5009815;28;20018;-77
2021/09/20 11:52:11;;;;;;;1139.95;999.90;;;;;;;;;;5008345;28;20022;-76
2021/09/20 11:54:39;;;;;;;1129.10;999.90;;;;;;;;;;5012761;28;20030;-77
2021/09/20 11:57:21;;;;;;;1133.97;999.90;;;;;;;;;;5010358;28;20041;-79
2021/09/20 11:59:51;;;;;;;1131.00;999.90;;;;;;;;;;5006297;28;20128;-78
2021/09/20 12:02:34;;;;;;;1124.28;999.90;;;;;;;;;;5005748;28;20037;-78
2021/09/20 12:05:05;;;;;;;1124.20;999.90;;;;;;;;;;5000985;28;20037;-77
2021/09/20 12:07:33;;;;;;;1125.80;999.90;;;;;;;;;;5002823;28;20117;-77
2021/09/20 12:10:01;;;;;;;1135.93;999.90;;;;;;;;;;5010435;28;20520;-76
2021/09/20 12:12:28;;;;;;;1126.85;999.90;;;;;;;;;;5009916;28;20092;-77
2021/09/20 12:14:55;;;;;;;1127.15;999.90;;;;;;;;;;5001798;28;20031;-77
2021/09/20 12:17:21;;;;;;;1125.63;999.90;;;;;;;;;;5010338;28;20624;-78
2021/09/20 12:19:52;;;;;;;1130.38;999.90;;;;;;;;;;5009493;28;20030;-76
2021/09/20 12:22:18;;;;;;;1130.75;999.90;;;;;;;;;;5009219;28;20030;-78
2021/09/20 12:24:44;;;;;;;1123.43;999.90;;;;;;;;;;5008945;28;20179;-79
2021/09/20 12:27:10;;;;;;;1122.22;999.90;;;;;;;;;;5014499;28;20036;-78
2021/09/20 12:29:37;;;;;;;1119.82;999.90;;;;;;;;;;5004793;28;20060;-77
2021/09/20 12:32:03;;;;;;;1124.47;999.90;;;;;;;;;;5006967;28;20061;-79
2021/09/20 12:34:34;;;;;;;1127.28;999.90;;;;;;;;;;5019484;28;20061;-78
2021/09/20 12:37:02;;;;;;;1139.03;999.90;;;;;;;;;;5008523;28;20045;-77
2021/09/20 12:39:34;;;;;;;1125.43;999.90;;;;;;;;;;5008349;28;20421;-79
2021/09/20 12:42:03;;;;;;;1127.53;999.90;;;;;;;;;;5008547;28;20080;-78
2021/09/20 12:44:32;;;;;;;1125.85;999.90;;;;;;;;;;5010584;28;20033;-78
2021/09/20 12:47:10;;;;;;;1120.20;999.90;;;;;;;;;;5010978;28;20050;-79
2021/09/20 12:49:38;;;;;;;1122.50;999.90;;;;;;;;;;5024018;28;20034;-79
2021/09/20 12:52:05;;;;;;;1129.47;999.90;;;;;;;;;;5009567;28;20018;-77
2021/09/20 12:54:32;;;;;;;1125.20;999.90;;;;;;;;;;5007554;28;20477;-77
2021/09/20 12:57:18;;;;;;;1124.68;999.90;;;;;;;;;;5010223;28;20053;-79
2021/09/20 12:59:45;;;;;;;1120.57;999.90;;;;;;;;;;5008043;28;20560;-77
2021/09/20 13:02:13;;;;;;;1121.50;999.90;;;;;;;;;;5009732;28;20037;-79
2021/09/20 13:04:40;;;;;;;1124.38;999.90;;;;;;;;;;5006793;28;20134;-77
2021/09/20 13:07:06;;;;;;;1121.72;999.90;;;;;;;;;;5013133;28;20030;-77
2021/09/20 13:09:34;;;;;;;1121.65;999.90;;;;;;;;;;5010415;28;20587;-78
2021/09/20 13:12:05;;;;;;;1121.28;999.90;;;;;;;;;;5004844;28;20053;-77
2021/09/20 13:14:32;;;;;;;1117.07;999.88;;;;;;;;;;5003242;28;20084;-78
2021/09/20 13:17:05;;;;;;;1119.18;999.90;;;;;;;;;;5001374;28;20057;-76
2021/09/20 13:19:31;;;;;;;1116.93;999.83;;;;;;;;;;5018280;28;20092;-80
2021/09/20 13:22:01;;;;;;;1120.85;999.90;;;;;;;;;;5004990;28;20418;-78
2021/09/20 13:24:35;;;;;;;1118.22;999.90;;;;;;;;;;5004200;28;20101;-78
2021/09/20 13:27:05;;;;;;;1123.95;999.90;;;;;;;;;;5001894;28;20030;-76
2021/09/20 13:29:30;;;;;;;1118.40;999.90;;;;;;;;;;5000930;28;20030;-77
2021/09/20 13:31:57;;;;;;;1122.30;999.90;;;;;;;;;;5001582;28;20061;-79
2021/09/20 13:34:23;;;;;;;1128.60;999.90;;;;;;;;;;5003296;28;20048;-78
2021/09/20 13:36:49;;;;;;;1131.95;999.90;;;;;;;;;;5011369;28;20112;-77
2021/09/20 13:39:15;;;;;;;1139.35;999.90;;;;;;;;;;5007453;28;20145;-77
2021/09/20 13:41:41;;;;;;;1137.25;999.90;;;;;;;;;;5007088;28;20106;-76
2021/09/20 13:44:07;;;;;;;1131.22;999.90;;;;;;;;;;5008653;28;20026;-77
2021/09/20 13:46:33;;;;;;;1134.20;999.90;;;;;;;;;;5006813;28;20061;-78
2021/09/20 13:48:59;;;;;;;1133.30;999.90;;;;;;;;;;5006611;28;20101;-78